KFEP/FEP METAR and TAF weather

Enter ICAO airport designator
Station Type Date Time Source
KFEP METAR 2019/05/23 18:55 UTC NOAA

KFEP 231855Z AUTO 25012G16KT 10SM CLR 21/11 A3006 RMK AO2 T02050111


Station Type Date Time Source
KFEP Decoded METAR 2019/05/23 18:55 UTC NOAA

Freeport, Albertus Airport, IL, United States (KFEP) 42-14-47N 089-34-56W
May 23, 2019 - 02:55 PM EDT / 2019.05.23 1855 UTC
Wind: from the WSW (250 degrees) at 14 MPH (12 KT) gusting to 18 MPH (16 KT):0
Visibility: 10 mile(s):0
Sky conditions: clear
Temperature: 68.9 F (20.5 C)
Dew Point: 52.0 F (11.1 C)
Relative Humidity: 54%
Pressure (altimeter): 30.06 in. Hg (1017 hPa)
ob: KFEP 231855Z AUTO 25012G16KT 10SM CLR 21/11 A3006 RMK AO2 T02050111
cycle: 19

Station Type Date Time Source
KFEP TAF UTC NOAA

Error!

Example: see airport list